Time,TemperatureF,DewpointF,PressureIn,WindDirection,WindDirectionDegrees,WindSpeedMPH,WindSpeedGustMPH,Humidity,HourlyPrecipIn,Conditions,Clouds,dailyrainin,SoftwareType,DateUTC
2013-01-31 06:02:00,33.0,31.0,30.28,SSE,153,0.0,-999.0,93,-99.99,,,-99.99,,2013-01-31 14:02:00,
2013-01-31 06:11:00,33.0,31.0,30.28,SSE,153,0.0,-999.0,93,-99.99,,,-99.99,,2013-01-31 14:11:00,
2013-01-31 06:21:00,33.0,31.0,30.29,SSE,153,0.0,-999.0,93,-99.99,,,-99.99,,2013-01-31 14:21:00,
2013-01-31 06:31:00,33.0,31.0,30.29,SSE,153,0.0,-999.0,93,-99.99,,,-99.99,,2013-01-31 14:31:00,
2013-01-31 06:42:00,33.0,31.0,30.29,SSE,153,0.0,-999.0,93,-99.99,,,-99.99,,2013-01-31 14:42:00,
2013-01-31 06:52:00,33.0,31.0,30.29,SSE,153,0.0,-999.0,94,-99.99,,,-99.99,,2013-01-31 14:52:00,
2013-01-31 07:02:00,33.0,31.0,30.29,SSE,153,0.0,-999.0,94,-99.99,,,-99.99,,2013-01-31 15:02:00,
2013-01-31 07:11:00,33.0,31.0,30.29,SSE,153,0.0,-999.0,94,-99.99,,,-99.99,,2013-01-31 15:11:00,
2013-01-31 07:22:00,33.0,31.0,30.29,SSE,153,0.0,-999.0,94,-99.99,,,-99.99,,2013-01-31 15:22:00,
2013-01-31 07:32:00,33.0,31.0,30.29,SSE,153,0.0,-999.0,94,-99.99,,,-99.99,,2013-01-31 15:32:00,
2013-01-31 07:42:00,33.0,31.0,30.29,SSE,153,0.0,-999.0,94,-99.99,,,-99.99,,2013-01-31 15:42:00,
2013-01-31 07:51:00,32.0,30.0,30.29,SSE,153,0.0,-999.0,94,-99.99,,,-99.99,,2013-01-31 15:51:00,
2013-01-31 08:03:00,32.0,30.0,30.30,SSE,153,0.0,-999.0,94,-99.99,,,-99.99,,2013-01-31 16:03:00,
2013-01-31 08:12:00,32.0,30.0,30.30,SSE,153,0.0,-999.0,94,-99.99,,,-99.99,,2013-01-31 16:12:00,
2013-01-31 08:21:00,33.0,31.0,30.30,SSE,153,0.0,-999.0,94,-99.99,,,-99.99,,2013-01-31 16:21:00,
2013-01-31 08:32:00,34.0,32.0,30.30,SSE,153,0.0,-999.0,94,-99.99,,,-99.99,,2013-01-31 16:32:00,
2013-01-31 08:41:00,34.0,32.0,30.30,SSE,153,0.0,-999.0,94,-99.99,,,-99.99,,2013-01-31 16:41:00,
2013-01-31 08:51:00,35.0,33.0,30.30,SSE,153,0.0,-999.0,94,-99.99,,,-99.99,,2013-01-31 16:51:00,
2013-01-31 09:02:00,37.0,36.0,30.30,SSE,153,0.0,-999.0,95,-99.99,,,-99.99,,2013-01-31 17:02:00,
2013-01-31 09:12:00,37.0,36.0,30.30,SSE,153,0.0,-999.0,95,-99.99,,,-99.99,,2013-01-31 17:12:00,
2013-01-31 09:22:00,39.0,38.0,30.31,SSE,153,0.0,-999.0,95,-99.99,,,-99.99,,2013-01-31 17:22:00,
2013-01-31 09:31:00,41.0,39.0,30.31,SSE,153,0.0,-999.0,94,-99.99,,,-99.99,,2013-01-31 17:31:00,
2013-01-31 09:42:00,41.0,39.0,30.31,SSE,153,0.0,-999.0,94,-99.99,,,-99.99,,2013-01-31 17:42:00,
2013-01-31 09:53:00,43.0,41.0,30.31,SSE,153,0.0,-999.0,93,-99.99,,,-99.99,,2013-01-31 17:53:00,
2013-01-31 10:02:00,45.0,42.0,30.30,SSE,153,0.0,-999.0,90,-99.99,,,-99.99,,2013-01-31 18:02:00,
2013-01-31 10:12:00,46.0,43.0,30.30,SSE,153,0.0,-999.0,88,-99.99,,,-99.99,,2013-01-31 18:12:00,
2013-01-31 10:21:00,46.0,43.0,30.30,SSE,153,0.0,-999.0,88,-99.99,,,-99.99,,2013-01-31 18:21:00,
2013-01-31 10:32:00,47.0,42.0,30.30,SSE,153,0.0,-999.0,84,-99.99,,,-99.99,,2013-01-31 18:32:00,
2013-01-31 10:42:00,47.0,42.0,30.30,SSE,153,0.0,-999.0,84,-99.99,,,-99.99,,2013-01-31 18:42:00,
2013-01-31 10:52:00,48.0,42.0,30.29,SSE,153,0.0,-999.0,81,-99.99,,,-99.99,,2013-01-31 18:52:00,
2013-01-31 11:02:00,50.0,44.0,30.29,SSE,153,0.0,-999.0,79,-99.99,,,-99.99,,2013-01-31 19:02:00,
2013-01-31 11:11:00,50.0,44.0,30.29,SSE,153,0.0,-999.0,79,-99.99,,,-99.99,,2013-01-31 19:11:00,
2013-01-31 11:21:00,51.0,44.0,30.29,SSE,153,0.0,-999.0,77,-99.99,,,-99.99,,2013-01-31 19:21:00,
2013-01-31 11:32:00,53.0,45.0,30.28,SSE,152,0.0,-999.0,75,-99.99,,,-99.99,,2013-01-31 19:32:00,
2013-01-31 11:42:00,53.0,45.0,30.28,SSE,152,0.0,-999.0,75,-99.99,,,-99.99,,2013-01-31 19:42:00,
2013-01-31 11:51:00,54.0,46.0,30.27,SSE,152,1.0,-999.0,73,-99.99,,,-99.99,,2013-01-31 19:51:00,
2013-01-31 12:01:00,55.0,47.0,30.27,SSE,153,0.0,-999.0,73,-99.99,,,-99.99,,2013-01-31 20:01:00,
2013-01-31 12:11:00,55.0,47.0,30.27,SSE,153,0.0,-999.0,73,-99.99,,,-99.99,,2013-01-31 20:11:00,
2013-01-31 12:21:00,56.0,47.0,30.26,SSE,148,1.0,-999.0,71,-99.99,,,-99.99,,2013-01-31 20:21:00,
2013-01-31 12:31:00,57.0,47.0,30.25,SE,127,1.0,-999.0,69,-99.99,,,-99.99,,2013-01-31 20:31:00,
2013-01-31 12:41:00,57.0,47.0,30.25,SE,127,1.0,-999.0,69,-99.99,,,-99.99,,2013-01-31 20:41:00,
2013-01-31 12:52:00,59.0,48.0,30.25,SSW,197,1.0,-999.0,68,-99.99,,,-99.99,,2013-01-31 20:52:00,
2013-01-31 13:02:00,60.0,47.0,30.24,SE,143,1.0,-999.0,63,-99.99,,,-99.99,,2013-01-31 21:02:00,
2013-01-31 13:11:00,60.0,47.0,30.24,SE,143,1.0,-999.0,63,-99.99,,,-99.99,,2013-01-31 21:11:00,
2013-01-31 13:21:00,60.0,46.0,30.23,SE,137,1.0,-999.0,59,-99.99,,,-99.99,,2013-01-31 21:21:00,
2013-01-31 13:31:00,61.0,47.0,30.23,SE,146,2.0,-999.0,59,-99.99,,,-99.99,,2013-01-31 21:31:00,
2013-01-31 13:42:00,61.0,47.0,30.23,SE,146,2.0,-999.0,59,-99.99,,,-99.99,,2013-01-31 21:42:00,
2013-01-31 13:52:00,63.0,48.0,30.22,SE,130,1.0,-999.0,58,-99.99,,,-99.99,,2013-01-31 21:52:00,
2013-01-31 14:02:00,64.0,48.0,30.22,SE,137,0.0,-999.0,57,-99.99,,,-99.99,,2013-01-31 22:02:00,
2013-01-31 14:11:00,64.0,48.0,30.22,SE,137,0.0,-999.0,57,-99.99,,,-99.99,,2013-01-31 22:11:00,
2013-01-31 14:21:00,64.0,48.0,30.21,SE,140,2.0,-999.0,57,-99.99,,,-99.99,,2013-01-31 22:21:00,
2013-01-31 14:32:00,65.0,47.0,30.20,SE,144,1.0,-999.0,52,-99.99,,,-99.99,,2013-01-31 22:32:00,
2013-01-31 14:42:00,65.0,47.0,30.20,SE,144,1.0,-999.0,52,-99.99,,,-99.99,,2013-01-31 22:42:00,
2013-01-31 14:52:00,66.0,49.0,30.20,SSE,150,1.0,-999.0,54,-99.99,,,-99.99,,2013-01-31 22:52:00,
2013-01-31 15:01:00,66.0,48.0,30.19,SE,138,2.0,-999.0,53,-99.99,,,-99.99,,2013-01-31 23:01:00,
2013-01-31 15:12:00,66.0,48.0,30.19,SE,138,2.0,-999.0,53,-99.99,,,-99.99,,2013-01-31 23:12:00,
2013-01-31 15:21:00,67.0,48.0,30.19,SE,144,2.0,-999.0,51,-99.99,,,-99.99,,2013-01-31 23:21:00,
2013-01-31 15:31:00,67.0,48.0,30.19,SSE,154,2.0,-999.0,50,-99.99,,,-99.99,,2013-01-31 23:31:00,
2013-01-31 15:41:00,67.0,48.0,30.19,SSE,154,2.0,-999.0,50,-99.99,,,-99.99,,2013-01-31 23:41:00,
2013-01-31 15:52:00,67.0,49.0,30.19,SE,136,2.0,-999.0,53,-99.99,,,-99.99,,2013-01-31 23:52:00,
2013-01-31 16:01:00,66.0,49.0,30.18,SW,219,2.0,-999.0,54,-99.99,,,-99.99,,2013-02-01 00:01:00,
2013-01-31 16:11:00,66.0,49.0,30.18,SW,219,2.0,-999.0,54,-99.99,,,-99.99,,2013-02-01 00:11:00,
2013-01-31 16:21:00,65.0,48.0,30.18,SE,138,2.0,-999.0,55,-99.99,,,-99.99,,2013-02-01 00:21:00,
2013-01-31 16:31:00,65.0,48.0,30.18,ESE,121,2.0,-999.0,54,-99.99,,,-99.99,,2013-02-01 00:31:00,
2013-01-31 16:42:00,65.0,48.0,30.18,ESE,121,2.0,-999.0,54,-99.99,,,-99.99,,2013-02-01 00:42:00,
2013-01-31 16:52:00,64.0,47.0,30.18,SE,128,3.0,-999.0,53,-99.99,,,-99.99,,2013-02-01 00:52:00,
2013-01-31 17:01:00,63.0,46.0,30.18,SE,140,2.0,-999.0,54,-99.99,,,-99.99,,2013-02-01 01:01:00,
2013-01-31 17:11:00,63.0,47.0,30.18,SE,137,2.0,-999.0,56,-99.99,,,-99.99,,2013-02-01 01:11:00,
2013-01-31 17:21:00,63.0,47.0,30.18,SE,137,2.0,-999.0,56,-99.99,,,-99.99,,2013-02-01 01:21:00,
2013-01-31 17:31:00,62.0,47.0,30.18,SE,128,0.0,-999.0,57,-99.99,,,-99.99,,2013-02-01 01:31:00,
2013-01-31 17:41:00,62.0,47.0,30.18,SE,128,0.0,-999.0,57,-99.99,,,-99.99,,2013-02-01 01:41:00,
2013-01-31 17:52:00,61.0,48.0,30.18,SE,132,1.0,-999.0,62,-99.99,,,-99.99,,2013-02-01 01:52:00,
2013-01-31 18:01:00,59.0,48.0,30.18,SE,132,0.0,-999.0,66,-99.99,,,-99.99,,2013-02-01 02:01:00,
2013-01-31 18:11:00,59.0,48.0,30.18,SE,132,0.0,-999.0,66,-99.99,,,-99.99,,2013-02-01 02:11:00,
2013-01-31 18:21:00,58.0,48.0,30.18,SE,132,0.0,-999.0,69,-99.99,,,-99.99,,2013-02-01 02:21:00,
2013-01-31 18:31:00,58.0,48.0,30.18,SE,132,0.0,-999.0,69,-99.99,,,-99.99,,2013-02-01 02:31:00,
2013-01-31 18:41:00,58.0,48.0,30.18,SE,132,0.0,-999.0,69,-99.99,,,-99.99,,2013-02-01 02:41:00,
2013-01-31 18:52:00,55.0,47.0,30.18,SE,132,0.0,-999.0,74,-99.99,,,-99.99,,2013-02-01 02:52:00,
2013-01-31 19:01:00,53.0,46.0,30.19,SE,132,0.0,-999.0,76,-99.99,,,-99.99,,2013-02-01 03:01:00,
2013-01-31 19:11:00,53.0,46.0,30.19,SE,132,0.0,-999.0,76,-99.99,,,-99.99,,2013-02-01 03:11:00,
2013-01-31 19:21:00,52.0,45.0,30.19,SE,132,0.0,-999.0,78,-99.99,,,-99.99,,2013-02-01 03:21:00,
2013-01-31 19:32:00,51.0,45.0,30.19,SE,132,0.0,-999.0,80,-99.99,,,-99.99,,2013-02-01 03:32:00,
2013-01-31 19:41:00,51.0,45.0,30.19,SE,132,0.0,-999.0,80,-99.99,,,-99.99,,2013-02-01 03:41:00,
2013-01-31 19:52:00,50.0,45.0,30.19,SE,132,0.0,-999.0,82,-99.99,,,-99.99,,2013-02-01 03:52:00,
2013-01-31 20:01:00,50.0,45.0,30.19,SE,132,0.0,-999.0,82,-99.99,,,-99.99,,2013-02-01 04:01:00,
2013-01-31 20:11:00,50.0,45.0,30.19,SE,132,0.0,-999.0,82,-99.99,,,-99.99,,2013-02-01 04:11:00,
2013-01-31 20:21:00,49.0,44.0,30.19,SE,132,0.0,-999.0,82,-99.99,,,-99.99,,2013-02-01 04:21:00,
2013-01-31 20:31:00,48.0,43.0,30.19,SE,132,0.0,-999.0,84,-99.99,,,-99.99,,2013-02-01 04:31:00,
2013-01-31 20:42:00,48.0,43.0,30.19,SE,132,0.0,-999.0,84,-99.99,,,-99.99,,2013-02-01 04:42:00,
2013-01-31 20:52:00,48.0,43.0,30.19,SE,132,0.0,-999.0,84,-99.99,,,-99.99,,2013-02-01 04:52:00,
2013-01-31 21:03:00,46.0,42.0,30.19,SE,132,0.0,-999.0,85,-99.99,,,-99.99,,2013-02-01 05:03:00,
2013-01-31 21:11:00,46.0,42.0,30.19,SE,132,0.0,-999.0,85,-99.99,,,-99.99,,2013-02-01 05:11:00,
2013-01-31 21:22:00,45.0,41.0,30.19,SE,132,0.0,-999.0,87,-99.99,,,-99.99,,2013-02-01 05:22:00,
2013-01-31 21:31:00,44.0,41.0,30.19,SE,132,0.0,-999.0,88,-99.99,,,-99.99,,2013-02-01 05:31:00,
2013-01-31 21:41:00,44.0,41.0,30.19,SE,132,0.0,-999.0,88,-99.99,,,-99.99,,2013-02-01 05:41:00,
2013-01-31 21:52:00,44.0,41.0,30.20,SE,132,0.0,-999.0,88,-99.99,,,-99.99,,2013-02-01 05:52:00,
2013-01-31 22:02:00,43.0,40.0,30.19,SE,132,0.0,-999.0,89,-99.99,,,-99.99,,2013-02-01 06:02:00,
2013-01-31 22:11:00,43.0,40.0,30.19,SE,132,0.0,-999.0,89,-99.99,,,-99.99,,2013-02-01 06:11:00,
2013-01-31 22:21:00,43.0,40.0,30.19,SE,132,0.0,-999.0,90,-99.99,,,-99.99,,2013-02-01 06:21:00,
2013-01-31 22:31:00,42.0,39.0,30.19,SE,132,0.0,-999.0,90,-99.99,,,-99.99,,2013-02-01 06:31:00,
2013-01-31 22:41:00,42.0,39.0,30.19,SE,132,0.0,-999.0,90,-99.99,,,-99.99,,2013-02-01 06:41:00,
2013-01-31 22:52:00,42.0,39.0,30.19,SE,132,0.0,-999.0,90,-99.99,,,-99.99,,2013-02-01 06:52:00,
2013-01-31 23:01:00,41.0,38.0,30.20,SE,132,0.0,-999.0,90,-99.99,,,-99.99,,2013-02-01 07:01:00,
2013-01-31 23:11:00,41.0,38.0,30.20,SE,132,0.0,-999.0,90,-99.99,,,-99.99,,2013-02-01 07:11:00,
2013-01-31 23:21:00,41.0,39.0,30.20,SE,132,0.0,-999.0,91,-99.99,,,-99.99,,2013-02-01 07:21:00,
2013-01-31 23:31:00,40.0,38.0,30.20,SE,132,0.0,-999.0,91,-99.99,,,-99.99,,2013-02-01 07:31:00,
2013-01-31 23:41:00,40.0,38.0,30.20,SE,132,0.0,-999.0,91,-99.99,,,-99.99,,2013-02-01 07:41:00,
2013-01-31 23:52:00,40.0,38.0,30.20,SE,132,0.0,-999.0,91,-99.99,,,-99.99,,2013-02-01 07:52:00,